Time;durP1;ratioP1;P1;durP2;ratioP2;P2;SDS_P1;SDS_P2;PMS_P1;PMS_P2;Temp;Humidity;BMP_temperature;BMP_pressure;BME280_temperature;BME280_humidity;BME280_pressure;Samples;Min_cycle;Max_cycle;Signal;HPM_P1;HPM_P2
2022/06/05 00:02:05;;;;;;;11.93;8.80;;;12.40;99.90;;;;;;5111496;28;20412;-80
2022/06/05 00:05:05;;;;;;;11.77;8.65;;;12.40;99.90;;;;;;5109980;28;20420;-79
2022/06/05 00:07:56;;;;;;;12.03;9.57;;;12.40;99.90;;;;;;5112310;27;20416;-80
2022/06/05 00:10:44;;;;;;;12.48;9.30;;;12.40;99.90;;;;;;5117571;27;20408;-79
2022/06/05 00:13:36;;;;;;;14.85;9.45;;;12.40;99.90;;;;;;5109714;28;21027;-81
2022/06/05 00:16:02;;;;;;;14.55;9.27;;;12.40;99.90;;;;;;5120734;27;20554;-80
2022/06/05 00:18:32;;;;;;;16.38;9.77;;;12.30;99.90;;;;;;5109536;28;20479;-80
2022/06/05 00:20:58;;;;;;;14.52;10.10;;;12.30;99.90;;;;;;5123960;27;20484;-80
2022/06/05 00:23:24;;;;;;;14.18;10.23;;;12.30;99.90;;;;;;5116172;27;20414;-80
2022/06/05 00:25:55;;;;;;;17.02;10.38;;;12.40;99.90;;;;;;5130213;27;20399;-80
2022/06/05 00:28:38;;;;;;;17.30;10.20;;;12.40;99.90;;;;;;5127186;27;20421;-80
2022/06/05 00:31:32;;;;;;;14.77;9.88;;;12.30;99.90;;;;;;5111147;27;20484;-80
2022/06/05 00:33:57;;;;;;;15.77;10.23;;;12.30;99.90;;;;;;5118916;27;20843;-80
2022/06/05 00:36:56;;;;;;;14.63;10.02;;;12.30;99.90;;;;;;5112712;27;20430;-79
2022/06/05 00:39:31;;;;;;;14.70;9.77;;;12.30;99.90;;;;;;5115897;27;20431;-80
2022/06/05 00:42:19;;;;;;;14.68;10.07;;;12.30;99.90;;;;;;5110690;28;20893;-80
2022/06/05 00:44:56;;;;;;;14.82;9.70;;;12.30;99.90;;;;;;5110877;27;20400;-80
2022/06/05 00:47:29;;;;;;;14.50;10.00;;;12.40;99.90;;;;;;5109239;28;20484;-79
2022/06/05 00:50:14;;;;;;;14.93;10.60;;;12.40;99.90;;;;;;5110161;28;20406;-80
2022/06/05 00:52:43;;;;;;;13.80;9.80;;;12.30;99.90;;;;;;5109348;28;20432;-80
2022/06/05 00:55:10;;;;;;;14.73;10.25;;;12.30;99.90;;;;;;5108769;28;20944;-80
2022/06/05 00:57:37;;;;;;;16.33;10.50;;;12.30;99.90;;;;;;5118818;27;20443;-80
2022/06/05 01:00:11;;;;;;;14.23;9.95;;;12.30;99.90;;;;;;5116633;27;20415;-80
2022/06/05 01:02:38;;;;;;;15.10;10.55;;;12.30;99.90;;;;;;5120838;27;20412;-80
2022/06/05 01:05:06;;;;;;;15.40;10.33;;;12.30;99.90;;;;;;5123101;27;20798;-80
2022/06/05 01:07:32;;;;;;;14.07;10.45;;;12.30;99.90;;;;;;5116111;27;20957;-79
2022/06/05 01:09:57;;;;;;;16.03;10.40;;;12.30;99.90;;;;;;5129398;27;20502;-80
2022/06/05 01:13:00;;;;;;;17.63;10.60;;;12.30;99.90;;;;;;5110662;27;20443;-80
2022/06/05 01:15:54;;;;;;;17.27;10.07;;;12.30;99.90;;;;;;5091655;28;20416;-80
2022/06/05 01:18:39;;;;;;;15.75;10.63;;;12.20;99.90;;;;;;5108779;28;20415;-79
2022/06/05 01:21:08;;;;;;;16.63;10.73;;;12.20;99.90;;;;;;5108715;28;20482;-80
2022/06/05 01:24:00;;;;;;;16.15;9.80;;;12.20;99.90;;;;;;5108343;28;20418;-80
2022/06/05 01:26:40;;;;;;;12.60;9.97;;;12.20;99.90;;;;;;5108499;28;20428;-80
2022/06/05 01:29:11;;;;;;;13.87;9.97;;;12.20;99.90;;;;;;5108349;28;20416;-80
2022/06/05 01:31:55;;;;;;;18.05;10.18;;;12.20;99.90;;;;;;5109450;28;21518;-80
2022/06/05 01:34:53;;;;;;;18.25;10.32;;;12.20;99.90;;;;;;5108483;28;22017;-79
2022/06/05 01:37:35;;;;;;;15.25;10.18;;;12.10;99.90;;;;;;5108581;28;21214;-80
2022/06/05 01:40:07;;;;;;;16.50;10.50;;;12.20;99.90;;;;;;5108344;28;20400;-79
2022/06/05 01:42:38;;;;;;;14.60;10.25;;;12.10;99.90;;;;;;5123843;27;20413;-80
2022/06/05 01:45:34;;;;;;;14.57;10.30;;;12.20;99.90;;;;;;5128439;27;20406;-80
2022/06/05 01:48:03;;;;;;;16.23;11.05;;;12.20;99.90;;;;;;5129915;27;20440;-80
2022/06/05 01:50:48;;;;;;;16.52;10.48;;;12.20;99.90;;;;;;5118726;27;20396;-80
2022/06/05 01:53:23;;;;;;;17.13;10.77;;;12.10;99.90;;;;;;5107468;28;21008;-80
2022/06/05 01:55:56;;;;;;;18.88;11.13;;;12.20;99.90;;;;;;5107973;28;20461;-79
2022/06/05 01:58:31;;;;;;;20.35;11.40;;;12.20;99.90;;;;;;5107598;28;20510;-80
2022/06/05 02:01:02;;;;;;;17.25;10.88;;;12.10;99.90;;;;;;5107679;28;20416;-80
2022/06/05 02:03:40;;;;;;;17.05;11.75;;;12.20;99.90;;;;;;5107996;28;20439;-80
2022/06/05 02:06:10;;;;;;;17.38;11.43;;;12.20;99.90;;;;;;5120286;27;20399;-80
2022/06/05 02:09:08;;;;;;;21.80;12.90;;;12.20;99.90;;;;;;5092070;28;20457;-80
2022/06/05 02:11:34;;;;;;;22.58;13.10;;;12.20;99.90;;;;;;5104024;28;20428;-81
2022/06/05 02:14:03;;;;;;;21.98;13.60;;;12.20;99.90;;;;;;5108098;28;20451;-80
2022/06/05 02:16:31;;;;;;;19.25;13.07;;;12.20;99.90;;;;;;5107883;28;20400;-80
2022/06/05 02:19:00;;;;;;;20.40;12.93;;;12.20;99.90;;;;;;5107979;28;20420;-80
2022/06/05 02:21:26;;;;;;;18.90;13.52;;;12.20;99.90;;;;;;5120002;27;20443;-80
2022/06/05 02:23:53;;;;;;;21.85;12.15;;;12.20;99.90;;;;;;5108831;27;20461;-80
2022/06/05 02:26:18;;;;;;;19.08;13.15;;;12.20;99.90;;;;;;5119040;27;20494;-80
2022/06/05 02:28:44;;;;;;;22.10;13.27;;;12.20;99.90;;;;;;5111533;27;20483;-80
2022/06/05 02:31:28;;;;;;;19.02;13.23;;;12.20;99.90;;;;;;5107447;28;20617;-80
2022/06/05 02:33:56;;;;;;;18.30;12.43;;;12.30;99.90;;;;;;5108272;28;20408;-81
2022/06/05 02:36:49;;;;;;;19.55;13.35;;;12.20;99.90;;;;;;5108362;28;20503;-79
2022/06/05 02:39:18;;;;;;;20.45;13.48;;;12.30;99.90;;;;;;5090427;28;20933;-80
2022/06/05 02:42:12;;;;;;;19.77;13.32;;;12.20;99.90;;;;;;5115491;27;20479;-80
2022/06/05 02:44:55;;;;;;;17.80;12.95;;;12.20;99.90;;;;;;5119042;27;20497;-80
2022/06/05 02:47:30;;;;;;;20.08;13.77;;;12.20;99.90;;;;;;5121876;27;20535;-80
2022/06/05 02:50:18;;;;;;;21.70;13.57;;;12.20;99.90;;;;;;5115156;27;20407;-80
2022/06/05 02:52:45;;;;;;;20.30;13.70;;;12.20;99.90;;;;;;5112098;27;20794;-80
2022/06/05 02:55:17;;;;;;;20.83;13.70;;;12.30;99.90;;;;;;5103061;28;20402;-80
2022/06/05 02:57:43;;;;;;;22.25;13.82;;;12.30;99.90;;;;;;5117504;27;20422;-80
2022/06/05 03:00:20;;;;;;;20.75;14.07;;;12.30;99.90;;;;;;5120808;28;21085;-80
2022/06/05 03:05:31;;;;;;;22.55;14.05;;;12.30;99.90;;;;;;5108789;28;20449;-80
2022/06/05 03:07:57;;;;;;;18.80;13.70;;;12.30;99.90;;;;;;5120438;27;20399;-80
2022/06/05 03:10:23;;;;;;;20.50;13.25;;;12.30;99.90;;;;;;5113784;28;20406;-80
2022/06/05 03:12:49;;;;;;;20.35;13.48;;;12.30;99.90;;;;;;5107208;28;20435;-80
2022/06/05 03:15:15;;;;;;;18.37;13.40;;;12.30;99.90;;;;;;5108373;27;20429;-80
2022/06/05 03:17:42;;;;;;;23.10;14.60;;;12.30;99.90;;;;;;5128382;27;20871;-80
2022/06/05 03:20:09;;;;;;;21.92;14.60;;;12.30;99.90;;;;;;5110444;28;20851;-80
2022/06/05 03:22:35;;;;;;;20.90;14.70;;;12.30;99.90;;;;;;5113288;27;20400;-80
2022/06/05 03:25:02;;;;;;;20.55;14.10;;;12.40;99.90;;;;;;5119824;28;20839;-80
2022/06/05 03:27:30;;;;;;;21.70;13.83;;;12.40;99.90;;;;;;5108066;28;20451;-80
2022/06/05 03:29:56;;;;;;;23.15;14.48;;;12.30;99.90;;;;;;5106451;28;20424;-80
2022/06/05 03:32:22;;;;;;;22.85;14.38;;;12.40;99.90;;;;;;5109607;28;20434;-80
2022/06/05 03:34:48;;;;;;;22.45;14.15;;;12.40;99.90;;;;;;5127390;27;20406;-80
2022/06/05 03:37:14;;;;;;;22.47;14.13;;;12.40;99.90;;;;;;5112128;27;20416;-80
2022/06/05 03:39:39;;;;;;;20.70;13.57;;;12.40;99.90;;;;;;5107930;28;20963;-80
2022/06/05 03:42:06;;;;;;;21.90;14.20;;;12.40;99.90;;;;;;5108161;28;20984;-80
2022/06/05 03:44:40;;;;;;;21.00;13.65;;;12.40;99.90;;;;;;5095211;27;20474;-80
2022/06/05 03:47:07;;;;;;;21.05;14.05;;;12.50;99.90;;;;;;5120113;27;20404;-80
2022/06/05 03:49:34;;;;;;;20.35;13.40;;;12.50;99.90;;;;;;5114315;27;20449;-81
2022/06/05 03:52:00;;;;;;;20.50;14.07;;;12.60;99.90;;;;;;5128072;27;20437;-80
2022/06/05 03:54:26;;;;;;;21.10;14.03;;;12.60;99.90;;;;;;5130879;27;20506;-80
2022/06/05 03:56:51;;;;;;;19.50;14.38;;;12.60;99.90;;;;;;5126141;27;20489;-80
2022/06/05 03:59:17;;;;;;;21.27;13.70;;;12.70;99.90;;;;;;5110006;28;20408;-80
2022/06/05 04:01:43;;;;;;;19.45;13.98;;;12.70;99.90;;;;;;5125843;27;20440;-80
2022/06/05 04:04:08;;;;;;;20.58;14.35;;;12.80;99.90;;;;;;5123421;27;20406;-80
2022/06/05 04:06:34;;;;;;;22.02;14.38;;;12.80;99.90;;;;;;5131599;27;20866;-80
2022/06/05 04:09:05;;;;;;;20.48;14.00;;;12.80;99.90;;;;;;5130886;27;20902;-80
2022/06/05 04:11:33;;;;;;;22.97;13.93;;;12.80;99.90;;;;;;5129640;27;20419;-80
2022/06/05 04:13:59;;;;;;;19.10;14.07;;;12.80;99.90;;;;;;5111206;28;20405;-80
2022/06/05 04:16:28;;;;;;;20.05;14.00;;;12.90;99.90;;;;;;5124736;27;20493;-80
2022/06/05 04:18:54;;;;;;;18.65;13.88;;;12.80;99.90;;;;;;5130822;27;20418;-80
2022/06/05 04:21:26;;;;;;;20.33;13.55;;;12.90;99.90;;;;;;5113454;27;20995;-80
2022/06/05 04:23:53;;;;;;;18.80;13.80;;;12.90;99.90;;;;;;5131674;27;20398;-80
2022/06/05 04:26:22;;;;;;;21.88;14.23;;;13.00;99.90;;;;;;5131489;27;21251;-80
2022/06/05 04:28:48;;;;;;;17.58;13.68;;;13.00;99.90;;;;;;5113091;27;20436;-80
2022/06/05 04:31:20;;;;;;;21.65;13.90;;;13.10;99.90;;;;;;5109085;28;20421;-80
2022/06/05 04:33:47;;;;;;;20.60;14.20;;;13.10;99.90;;;;;;5127504;27;20410;-80
2022/06/05 04:36:13;;;;;;;18.03;13.80;;;13.10;99.90;;;;;;5130018;27;20410;-80
2022/06/05 04:38:39;;;;;;;19.30;13.55;;;13.20;99.90;;;;;;5112519;27;20802;-80
2022/06/05 04:41:05;;;;;;;19.33;14.00;;;13.20;99.90;;;;;;5129925;27;20410;-80
2022/06/05 04:43:31;;;;;;;19.25;14.02;;;13.20;99.90;;;;;;5118101;27;20758;-80
2022/06/05 04:45:56;;;;;;;18.33;13.53;;;13.30;99.90;;;;;;5128976;27;20402;-80
2022/06/05 04:48:22;;;;;;;21.85;14.23;;;13.30;99.90;;;;;;5130945;27;20947;-80
2022/06/05 04:50:47;;;;;;;20.63;13.73;;;13.30;99.90;;;;;;5130947;27;20406;-78
2022/06/05 04:53:13;;;;;;;19.08;13.63;;;13.30;99.90;;;;;;5129929;27;20867;-78
2022/06/05 04:55:39;;;;;;;19.03;13.87;;;13.40;99.90;;;;;;5129762;27;20478;-79
2022/06/05 04:58:05;;;;;;;17.90;13.20;;;13.50;99.90;;;;;;5129135;27;20896;-78
2022/06/05 05:00:31;;;;;;;18.10;13.57;;;13.50;99.90;;;;;;5130575;27;20395;-78
2022/06/05 05:02:56;;;;;;;18.98;13.55;;;13.60;99.90;;;;;;5111485;27;20423;-78
2022/06/05 05:05:22;;;;;;;16.92;13.13;;;13.70;99.90;;;;;;5121699;27;20404;-79
2022/06/05 05:07:48;;;;;;;16.70;12.40;;;13.80;99.90;;;;;;5117546;27;20435;-78
2022/06/05 05:10:14;;;;;;;19.70;12.98;;;13.80;99.90;;;;;;5114753;27;20527;-78
2022/06/05 05:12:40;;;;;;;17.70;12.93;;;13.90;99.90;;;;;;5116111;27;20437;-78
2022/06/05 05:15:07;;;;;;;17.98;13.07;;;14.00;99.90;;;;;;5092994;28;20466;-78
2022/06/05 05:17:33;;;;;;;18.03;12.70;;;14.00;99.90;;;;;;5108811;28;20521;-78
2022/06/05 05:19:58;;;;;;;18.55;12.90;;;14.10;99.90;;;;;;5108602;28;20495;-78
2022/06/05 05:22:24;;;;;;;19.23;13.20;;;14.20;99.90;;;;;;5115860;27;20554;-78
2022/06/05 05:24:50;;;;;;;14.97;12.23;;;14.20;99.90;;;;;;5123770;27;20403;-78
2022/06/05 05:27:15;;;;;;;17.92;12.57;;;14.20;99.90;;;;;;5122283;27;20833;-78
2022/06/05 05:29:41;;;;;;;16.57;12.67;;;14.30;99.90;;;;;;5109683;28;20404;-78
2022/06/05 05:32:09;;;;;;;16.05;12.43;;;14.20;99.90;;;;;;5113703;27;20457;-78
2022/06/05 05:34:35;;;;;;;17.70;12.68;;;14.20;99.90;;;;;;5117688;27;20778;-78
2022/06/05 05:37:00;;;;;;;15.63;12.32;;;14.20;99.90;;;;;;5108518;28;20416;-78
2022/06/05 05:42:11;;;;;;;15.50;12.15;;;14.30;99.90;;;;;;5108573;28;20416;-76
2022/06/05 05:44:48;;;;;;;14.63;11.90;;;14.30;99.90;;;;;;5101079;27;20406;-77
2022/06/05 05:47:24;;;;;;;17.10;12.80;;;14.40;99.90;;;;;;5094119;28;20442;-77
2022/06/05 05:49:55;;;;;;;15.82;12.32;;;14.40;99.90;;;;;;5118886;27;20413;-78
2022/06/05 05:52:22;;;;;;;16.08;12.48;;;14.60;99.90;;;;;;5110644;27;20537;-77
2022/06/05 05:54:48;;;;;;;15.43;12.50;;;14.70;99.90;;;;;;5107408;28;20408;-78
2022/06/05 05:57:14;;;;;;;17.45;12.68;;;14.80;99.90;;;;;;5110511;27;20404;-78
2022/06/05 05:59:40;;;;;;;15.45;12.00;;;14.90;99.90;;;;;;5121740;27;20404;-78
2022/06/05 06:02:11;;;;;;;15.57;12.57;;;15.00;99.90;;;;;;5110519;27;20801;-78
2022/06/05 06:04:37;;;;;;;16.73;12.18;;;15.10;99.90;;;;;;5111962;27;21113;-78
2022/06/05 06:07:03;;;;;;;15.00;12.02;;;15.30;99.90;;;;;;5106302;28;20537;-79
2022/06/05 06:09:29;;;;;;;13.13;11.40;;;15.30;99.90;;;;;;5110749;27;20497;-79
2022/06/05 06:11:55;;;;;;;13.43;11.30;;;15.50;99.90;;;;;;5109814;27;20558;-79
2022/06/05 06:14:21;;;;;;;15.18;12.38;;;15.60;99.90;;;;;;5106397;28;20404;-79
2022/06/05 06:16:46;;;;;;;14.93;11.82;;;15.70;99.90;;;;;;5107604;28;20392;-79
2022/06/05 06:19:12;;;;;;;14.00;10.83;;;15.80;99.90;;;;;;5111962;27;20398;-79
2022/06/05 06:21:38;;;;;;;14.45;10.80;;;16.00;99.90;;;;;;5109892;27;20404;-80
2022/06/05 06:24:04;;;;;;;14.45;10.95;;;16.10;99.90;;;;;;5110674;27;20408;-80
2022/06/05 06:26:29;;;;;;;12.30;10.43;;;16.20;99.90;;;;;;5108986;27;20395;-80
2022/06/05 06:28:55;;;;;;;13.00;10.70;;;16.30;99.90;;;;;;5106008;28;20420;-80
2022/06/05 06:31:21;;;;;;;12.47;10.53;;;16.30;99.90;;;;;;5110494;27;20503;-78
2022/06/05 06:33:48;;;;;;;12.40;10.02;;;16.40;99.90;;;;;;5109708;27;20410;-78
2022/06/05 06:36:16;;;;;;;12.70;9.93;;;16.50;99.90;;;;;;5102096;27;20485;-78
2022/06/05 06:38:42;;;;;;;11.45;9.57;;;16.50;99.90;;;;;;5117381;27;20394;-78
2022/06/05 06:41:10;;;;;;;13.63;9.87;;;16.50;99.90;;;;;;5109924;27;20474;-78
2022/06/05 06:43:36;;;;;;;11.43;8.77;;;16.50;99.90;;;;;;5108980;27;20414;-78
2022/06/05 06:46:02;;;;;;;10.90;8.60;;;16.60;99.90;;;;;;5114897;27;20408;-78
2022/06/05 06:48:28;;;;;;;9.43;8.43;;;16.60;99.90;;;;;;5110067;28;20461;-78
2022/06/05 06:50:55;;;;;;;10.35;8.40;;;16.70;99.90;;;;;;5111151;28;20910;-78
2022/06/05 06:53:22;;;;;;;11.20;8.40;;;16.70;99.90;;;;;;5107118;28;20415;-79
2022/06/05 06:55:48;;;;;;;10.90;8.70;;;16.70;99.90;;;;;;5108966;28;20400;-79
2022/06/05 06:58:14;;;;;;;9.43;8.37;;;16.70;99.90;;;;;;5107866;28;20765;-79
2022/06/05 07:00:40;;;;;;;9.63;8.13;;;16.80;99.90;;;;;;5109930;28;20404;-79
2022/06/05 07:03:06;;;;;;;9.88;7.97;;;16.80;99.90;;;;;;5108554;28;20948;-78
2022/06/05 07:05:32;;;;;;;10.65;8.50;;;16.80;99.90;;;;;;5111243;28;20447;-78
2022/06/05 07:07:59;;;;;;;10.05;8.55;;;16.90;99.90;;;;;;5110337;28;20408;-79
2022/06/05 07:10:25;;;;;;;9.38;8.43;;;16.90;99.90;;;;;;5119051;28;20443;-78
2022/06/05 07:12:51;;;;;;;10.63;8.43;;;17.00;99.90;;;;;;5118013;28;20801;-79
2022/06/05 07:15:17;;;;;;;9.77;8.52;;;17.00;99.90;;;;;;5116218;28;20416;-79
2022/06/05 07:17:43;;;;;;;10.95;8.40;;;17.10;99.90;;;;;;5118901;27;20432;-79
2022/06/05 07:20:09;;;;;;;11.43;8.87;;;17.20;99.90;;;;;;5113820;27;20406;-79
2022/06/05 07:22:35;;;;;;;8.95;8.02;;;17.20;99.90;;;;;;5109518;28;20404;-79
2022/06/05 07:25:00;;;;;;;9.95;8.85;;;17.30;99.90;;;;;;5110109;27;20412;-79
2022/06/05 07:27:27;;;;;;;9.80;8.80;;;17.30;99.90;;;;;;5116648;27;20936;-79
2022/06/05 07:29:53;;;;;;;10.45;8.75;;;17.40;99.90;;;;;;5113551;27;20418;-79
2022/06/05 07:32:20;;;;;;;11.38;9.15;;;17.50;99.90;;;;;;5117832;27;20450;-79
2022/06/05 07:34:47;;;;;;;11.68;9.07;;;17.60;99.90;;;;;;5109510;27;20905;-79
2022/06/05 07:37:13;;;;;;;10.35;8.88;;;17.60;99.90;;;;;;5112800;27;20527;-79
2022/06/05 07:39:43;;;;;;;11.18;8.32;;;17.60;99.90;;;;;;5111571;27;20511;-79
2022/06/05 07:42:09;;;;;;;10.93;9.00;;;17.70;99.90;;;;;;5113520;27;20526;-79
2022/06/05 07:44:36;;;;;;;10.15;9.02;;;17.80;99.90;;;;;;5116108;27;20403;-79
2022/06/05 07:47:07;;;;;;;11.05;8.95;;;17.80;99.90;;;;;;5113721;27;20430;-79
2022/06/05 07:49:37;;;;;;;9.90;8.60;;;17.90;99.90;;;;;;5112009;27;20412;-79
2022/06/05 07:54:47;;;;;;;9.45;7.93;;;18.10;99.90;;;;;;5112897;27;20474;-79
2022/06/05 07:57:14;;;;;;;10.23;8.10;;;18.10;99.90;;;;;;5121875;27;20436;-78
2022/06/05 07:59:42;;;;;;;9.85;8.02;;;18.20;99.90;;;;;;5125240;27;20410;-78
2022/06/05 08:02:12;;;;;;;9.20;7.65;;;18.30;99.90;;;;;;5128577;27;20429;-79
2022/06/05 08:04:39;;;;;;;9.68;8.38;;;18.50;99.90;;;;;;5113319;27;20404;-79
2022/06/05 08:07:07;;;;;;;9.68;7.63;;;18.50;99.90;;;;;;5113914;27;20404;-79
2022/06/05 08:09:34;;;;;;;9.50;7.85;;;18.60;99.90;;;;;;5112116;27;20407;-79
2022/06/05 08:12:00;;;;;;;8.60;7.78;;;18.70;99.90;;;;;;5092059;28;20513;-79
2022/06/05 08:14:27;;;;;;;9.60;7.75;;;18.80;99.90;;;;;;5111130;27;20409;-79
2022/06/05 08:16:55;;;;;;;8.82;7.47;;;18.80;99.90;;;;;;5113978;27;20479;-79
2022/06/05 08:19:22;;;;;;;9.65;7.78;;;18.90;99.90;;;;;;5123079;27;20963;-79
2022/06/05 08:21:51;;;;;;;8.38;7.55;;;19.00;99.90;;;;;;5109391;27;20408;-79
2022/06/05 08:24:16;;;;;;;8.68;7.15;;;19.10;99.90;;;;;;5114271;27;20778;-79
2022/06/05 08:26:42;;;;;;;9.10;7.60;;;19.20;99.90;;;;;;5109309;27;20404;-79
2022/06/05 08:29:08;;;;;;;8.80;7.65;;;19.30;99.90;;;;;;5109276;28;21456;-79
2022/06/05 08:31:34;;;;;;;8.70;7.55;;;19.40;99.90;;;;;;5111389;27;20429;-79
2022/06/05 08:34:01;;;;;;;9.13;7.38;;;19.50;99.90;;;;;;5113051;27;20806;-80
2022/06/05 08:36:27;;;;;;;8.27;7.17;;;19.50;99.90;;;;;;5111330;27;20428;-79
2022/06/05 08:41:56;;;;;;;8.65;7.75;;;19.70;99.90;;;;;;5121583;27;20421;-78
2022/06/05 08:44:49;;;;;;;11.15;7.40;;;19.80;99.90;;;;;;5128438;27;20494;-79
2022/06/05 08:47:31;;;;;;;8.02;6.97;;;19.90;99.90;;;;;;5118813;27;20429;-79
2022/06/05 08:50:03;;;;;;;8.48;6.82;;;20.00;99.90;;;;;;5121925;27;20407;-80
2022/06/05 08:53:12;;;;;;;8.95;6.97;;;20.20;99.90;;;;;;5123072;27;20475;-80
2022/06/05 08:55:41;;;;;;;7.63;6.40;;;20.40;99.90;;;;;;5048890;27;20435;-79
2022/06/05 08:58:29;;;;;;;8.30;6.45;;;20.50;99.90;;;;;;5125720;27;20427;-79
2022/06/05 09:01:16;;;;;;;6.88;6.13;;;20.70;99.90;;;;;;5125263;27;20452;-79
2022/06/05 09:03:51;;;;;;;8.05;7.03;;;20.80;99.90;;;;;;5127230;27;20464;-79
2022/06/05 09:06:36;;;;;;;8.15;6.90;;;20.90;99.90;;;;;;5112586;27;20928;-79
2022/06/05 09:09:05;;;;;;;8.30;6.78;;;20.90;99.90;;;;;;5128225;27;20498;-79
2022/06/05 09:11:49;;;;;;;7.35;6.47;;;21.00;99.90;;;;;;5112874;27;20606;-79
2022/06/05 09:14:43;;;;;;;9.05;6.00;;;21.00;99.90;;;;;;5109770;27;21121;-79
2022/06/05 09:17:13;;;;;;;7.22;6.53;;;21.10;99.90;;;;;;5127117;27;21016;-80
2022/06/05 09:19:39;;;;;;;7.47;6.07;;;21.20;99.90;;;;;;5127520;27;20499;-80
2022/06/05 09:22:24;;;;;;;6.88;6.18;;;21.20;99.90;;;;;;5117755;27;21162;-79
2022/06/05 09:25:25;;;;;;;7.10;5.72;;;21.20;99.90;;;;;;5129315;27;20413;-79
2022/06/05 09:28:06;;;;;;;6.95;5.80;;;21.10;99.90;;;;;;5125433;27;20433;-79
2022/06/05 09:31:08;;;;;;;6.43;5.30;;;21.20;99.90;;;;;;5127113;27;20935;-79
2022/06/05 09:33:37;;;;;;;6.93;5.87;;;21.30;99.90;;;;;;5119523;27;20429;-80
2022/06/05 09:36:13;;;;;;;8.02;6.13;;;21.40;99.90;;;;;;5123829;27;21073;-79
2022/06/05 09:38:43;;;;;;;6.78;5.97;;;21.40;99.90;;;;;;5115805;27;20518;-79
2022/06/05 09:41:11;;;;;;;7.10;5.95;;;21.50;99.90;;;;;;5129371;27;20888;-79
2022/06/05 09:43:59;;;;;;;6.07;5.47;;;21.60;99.90;;;;;;5122695;27;20426;-79
2022/06/05 09:46:43;;;;;;;7.13;5.35;;;21.80;99.90;;;;;;5125305;27;20431;-80
2022/06/05 09:49:34;;;;;;;6.97;5.00;;;22.00;99.90;;;;;;5126577;27;20403;-80
2022/06/05 09:52:19;;;;;;;7.20;5.45;;;22.30;99.90;;;;;;5120937;27;20465;-79
2022/06/05 09:54:49;;;;;;;6.13;4.82;;;22.40;99.90;;;;;;5099731;27;20407;-79
2022/06/05 10:00:43;;;;;;;6.18;4.35;;;22.60;99.80;;;;;;5119578;27;20426;-80
2022/06/05 10:03:20;;;;;;;5.43;4.10;;;22.70;99.90;;;;;;5092952;28;20428;-80
2022/06/05 10:06:22;;;;;;;6.38;4.38;;;22.90;99.90;;;;;;5120056;27;20438;-80
2022/06/05 10:09:07;;;;;;;6.47;4.65;;;23.10;99.70;;;;;;5106427;27;20772;-80
2022/06/05 10:11:49;;;;;;;5.97;4.72;;;23.40;98.90;;;;;;5111799;27;20424;-78
2022/06/05 10:14:39;;;;;;;5.93;4.80;;;23.40;98.00;;;;;;5124215;27;20406;-77
2022/06/05 10:17:24;;;;;;;5.35;4.50;;;23.40;98.30;;;;;;5122014;27;20432;-78
2022/06/05 10:20:23;;;;;;;5.80;4.35;;;23.50;98.00;;;;;;5121346;27;20501;-79
2022/06/05 10:23:12;;;;;;;7.40;4.75;;;23.70;98.20;;;;;;5125084;27;20405;-79
2022/06/05 10:25:43;;;;;;;7.82;4.68;;;23.70;96.80;;;;;;5103033;27;20417;-80
2022/06/05 10:28:15;;;;;;;7.00;4.60;;;23.70;96.90;;;;;;5110409;27;20417;-80
2022/06/05 10:30:59;;;;;;;6.53;4.55;;;23.80;96.30;;;;;;5127801;27;20425;-80
2022/06/05 10:33:40;;;;;;;7.97;4.80;;;23.90;96.80;;;;;;5113929;27;20438;-79
2022/06/05 10:36:26;;;;;;;6.15;4.50;;;24.10;96.70;;;;;;5127694;27;20776;-80
2022/06/05 10:39:22;;;;;;;6.40;4.30;;;24.30;96.70;;;;;;5127366;27;20481;-79
2022/06/05 10:42:08;;;;;;;5.10;4.18;;;24.50;96.10;;;;;;5127168;27;20411;-80
2022/06/05 10:44:57;;;;;;;6.10;4.45;;;24.60;96.00;;;;;;5112722;28;20412;-80
2022/06/05 10:47:39;;;;;;;5.97;4.35;;;24.80;95.70;;;;;;5120964;27;20411;-80
2022/06/05 10:50:33;;;;;;;6.68;4.70;;;24.90;94.50;;;;;;5127003;27;20730;-80
2022/06/05 10:53:07;;;;;;;5.37;4.60;;;25.10;94.00;;;;;;5104686;28;20963;-80
2022/06/05 10:55:57;;;;;;;6.53;4.18;;;25.10;93.10;;;;;;5093088;28;20415;-80
2022/06/05 10:58:25;;;;;;;5.22;4.00;;;25.10;93.50;;;;;;5123807;28;20414;-80
2022/06/05 11:00:50;;;;;;;6.05;4.20;;;25.20;93.20;;;;;;5128487;27;20409;-80
2022/06/05 11:03:28;;;;;;;5.47;4.07;;;25.30;93.80;;;;;;5127810;27;20414;-80
2022/06/05 11:06:18;;;;;;;5.28;3.97;;;25.40;93.40;;;;;;5126977;27;20418;-80
2022/06/05 11:09:18;;;;;;;4.82;3.88;;;25.40;93.20;;;;;;5127268;27;20418;-80
2022/06/05 11:15:34;;;;;;;5.88;4.18;;;25.50;92.70;;;;;;5108528;27;20439;-80
2022/06/05 11:18:18;;;;;;;6.18;4.35;;;25.50;92.60;;;;;;5114481;28;20419;-80
2022/06/05 11:20:54;;;;;;;7.03;4.38;;;25.40;92.50;;;;;;5120728;27;20412;-80
2022/06/05 11:23:24;;;;;;;6.65;4.30;;;25.40;92.20;;;;;;5110123;28;20449;-80
2022/06/05 11:26:16;;;;;;;6.50;3.97;;;25.40;93.40;;;;;;5127609;27;20939;-80
2022/06/05 11:29:14;;;;;;;6.18;3.83;;;25.50;93.00;;;;;;5113895;27;20418;-80
2022/06/05 11:32:10;;;;;;;5.47;4.03;;;25.60;93.20;;;;;;5112955;27;20428;-80
2022/06/05 11:34:44;;;;;;;7.17;4.40;;;25.60;92.50;;;;;;5115052;27;20461;-80
2022/06/05 11:37:16;;;;;;;6.18;3.90;;;25.60;92.20;;;;;;5127832;27;20410;-80
2022/06/05 11:40:12;;;;;;;8.05;4.10;;;25.60;93.00;;;;;;5097758;28;20965;-80
2022/06/05 11:42:46;;;;;;;5.25;3.75;;;25.60;92.80;;;;;;5115155;28;20410;-80
2022/06/05 11:45:34;;;;;;;4.93;4.05;;;25.60;92.80;;;;;;5112466;27;20491;-80
2022/06/05 11:48:08;;;;;;;5.22;3.90;;;25.50;92.50;;;;;;5107947;28;20404;-80
2022/06/05 11:50:52;;;;;;;5.43;3.63;;;25.40;92.10;;;;;;5124549;28;20790;-80
2022/06/05 11:53:29;;;;;;;4.65;3.95;;;25.40;92.80;;;;;;5115945;27;20424;-80
2022/06/05 11:56:00;;;;;;;5.67;3.83;;;25.40;92.80;;;;;;5106409;28;20412;-79
2022/06/05 11:58:37;;;;;;;5.47;3.85;;;25.30;92.50;;;;;;5089840;28;20758;-80
2022/06/05 12:01:15;;;;;;;5.32;3.65;;;25.40;92.20;;;;;;5120763;27;20416;-80
2022/06/05 12:03:53;;;;;;;4.18;3.33;;;25.40;93.00;;;;;;5106356;28;20415;-79
2022/06/05 12:06:34;;;;;;;4.25;3.28;;;25.40;92.50;;;;;;5106269;28;20909;-80
2022/06/05 12:09:03;;;;;;;5.47;3.53;;;25.40;92.40;;;;;;5109831;28;20415;-80
2022/06/05 12:11:51;;;;;;;4.90;3.30;;;25.50;91.60;;;;;;5109908;28;20428;-80
2022/06/05 12:14:23;;;;;;;5.80;3.40;;;25.50;91.00;;;;;;5110155;28;20420;-80
2022/06/05 12:17:23;;;;;;;6.97;3.50;;;25.40;91.10;;;;;;5109935;28;20431;-80
2022/06/05 12:20:05;;;;;;;5.65;3.13;;;25.40;90.20;;;;;;5125503;27;20405;-80
2022/06/05 12:22:52;;;;;;;6.07;3.55;;;25.40;91.20;;;;;;5109627;28;20451;-80
2022/06/05 12:25:28;;;;;;;4.82;3.42;;;25.40;90.10;;;;;;5118848;27;20524;-80
2022/06/05 12:28:25;;;;;;;4.15;3.30;;;25.30;90.10;;;;;;5117276;27;20428;-80
2022/06/05 12:30:56;;;;;;;5.47;3.40;;;25.30;90.60;;;;;;5100414;28;20509;-79
2022/06/05 12:33:42;;;;;;;4.38;3.40;;;25.20;90.60;;;;;;5118417;27;20436;-80
2022/06/05 12:36:17;;;;;;;6.78;3.47;;;25.20;90.60;;;;;;5092603;28;20435;-79
2022/06/05 12:38:54;;;;;;;6.10;3.65;;;25.10;90.00;;;;;;5109557;28;20973;-80
2022/06/05 12:41:23;;;;;;;4.00;3.60;;;25.10;90.60;;;;;;5124713;27;20418;-79
2022/06/05 12:43:58;;;;;;;4.13;3.20;;;25.00;90.10;;;;;;5118894;27;20399;-76
2022/06/05 12:47:05;;;;;;;6.22;3.45;;;25.00;90.10;;;;;;5114884;27;20423;-80
2022/06/05 12:50:02;;;;;;;6.85;3.67;;;24.90;90.50;;;;;;5124491;27;20514;-79
2022/06/05 12:52:45;;;;;;;6.80;3.97;;;24.90;90.70;;;;;;5123753;27;20434;-80
2022/06/05 12:55:33;;;;;;;4.80;3.40;;;24.90;90.30;;;;;;5125546;27;20453;-80
2022/06/05 12:58:07;;;;;;;6.38;3.85;;;24.90;90.10;;;;;;5121933;27;21108;-80
2022/06/05 13:00:45;;;;;;;8.13;3.63;;;24.80;90.90;;;;;;5128036;27;20406;-79
2022/06/05 13:03:29;;;;;;;4.13;3.40;;;24.80;90.70;;;;;;5120441;27;21090;-79
2022/06/05 13:06:07;;;;;;;5.30;3.58;;;24.70;90.80;;;;;;5109229;28;20428;-80
2022/06/05 13:09:12;;;;;;;4.90;3.20;;;24.70;90.80;;;;;;5122591;27;20456;-80
2022/06/05 13:11:55;;;;;;;6.28;3.60;;;24.70;91.00;;;;;;5085045;27;20458;-79
2022/06/05 13:14:40;;;;;;;5.18;3.13;;;24.70;90.90;;;;;;5115053;27;20415;-79
2022/06/05 13:17:42;;;;;;;3.87;3.47;;;24.70;90.90;;;;;;5127795;27;20415;-80
2022/06/05 13:20:41;;;;;;;4.35;3.55;;;24.60;91.30;;;;;;5129533;27;20418;-80
2022/06/05 13:23:15;;;;;;;9.48;3.83;;;24.60;91.20;;;;;;5112676;27;20928;-79
2022/06/05 13:26:07;;;;;;;12.70;3.97;;;24.60;90.90;;;;;;5127001;27;20514;-80
2022/06/05 13:28:45;;;;;;;4.63;3.65;;;24.60;91.20;;;;;;5124364;27;20489;-80
2022/06/05 13:31:44;;;;;;;3.80;3.10;;;24.60;90.60;;;;;;5129022;27;20410;-80